»·PEaware :: USC243 KLAS-KMCC

USC243 :: KLAS-KMCC

FLIGHT INFORMATION

Flight Status: Arrived
Operator: Unknown
More flights by this operator :: More flights under this callsign
Pilot: Andy P. (22680)
Aircraft: GATES LEARJET LEARJET 35/36
(LJ35)
More flights by this aircraft type
Origin: KLAS McCarran Intl
United States
Destination: KMCC McClellan
United States
More flights between these airports :: More routes between these airports
Route: SHEAD1 KENNO DARBI
File this flight plan on PilotEdge
Remarks:
Altitude:
(Current/Filed)
34,000ft
Speed:
(Current/Filed)
465kts
Departed: 25-Feb-19 05:00 PM
Arrived: 25-Feb-19 06:07 PM
Distance/Time
Traveled:
336nm/1:06
Distance/Time
To Go:
Arrived

Flight Plot

Page will automatically refresh every two minutes.

Flight plan parsing failed; only flown route is shown


Map Options




Map Legend


Flown Route
Filed Route
Departure Airport
Arrival Airport
Navaid (VOR, NDB)
Fix

Horizontal Profiles

Position Reports

Time Latitude Longitude Heading Altitude Ground
Speed
25-Feb-19 16:36 36.082928 -115.125612 90 2183ft 0kts
25-Feb-19 16:37 36.082928 -115.125612 90 2183ft 0kts
25-Feb-19 16:38 36.082928 -115.125612 90 2183ft 0kts
25-Feb-19 16:39 36.082928 -115.125612 90 2183ft 0kts
25-Feb-19 16:40 36.082928 -115.125612 90 2183ft 0kts
25-Feb-19 16:41 36.082928 -115.125612 90 2183ft 0kts
25-Feb-19 16:42 36.082928 -115.125612 90 2183ft 0kts
25-Feb-19 16:43 36.082928 -115.125612 90 2183ft 0kts
25-Feb-19 16:44 36.082928 -115.125612 90 2183ft 0kts
25-Feb-19 16:45 36.082928 -115.125612 90 2183ft 0kts
25-Feb-19 16:46 36.082928 -115.125612 90 2183ft 0kts
25-Feb-19 16:47 36.082928 -115.125612 90 2183ft 0kts
25-Feb-19 16:48 36.082928 -115.125612 90 2183ft 0kts
25-Feb-19 16:49 36.082928 -115.125612 90 2183ft 0kts
25-Feb-19 16:50 36.082928 -115.125612 90 2183ft 0kts
25-Feb-19 16:50 36.082928 -115.125612 90 2183ft 0kts
25-Feb-19 16:52 36.082928 -115.125612 90 2183ft 0kts
25-Feb-19 16:53 36.082928 -115.125611 90 2183ft 0kts
25-Feb-19 16:53 36.083085 -115.125587 293 2183ft 2kts
25-Feb-19 16:54 36.083044 -115.125943 253 2183ft 0kts
25-Feb-19 16:56 36.082874 -115.126224 214 2183ft 8kts
25-Feb-19 16:57 36.078879 -115.126394 178 2183ft 12kts
25-Feb-19 16:57 36.078300 -115.123399 91 2183ft 12kts
25-Feb-19 16:58 36.077464 -115.122371 179 2183ft 0kts
25-Feb-19 17:00 36.076432 -115.129470 267 2184ft 106kts
25-Feb-19 17:00 36.076534 -115.182226 270 3696ft 213kts
25-Feb-19 17:01 36.065574 -115.256608 217 6296ft 235kts
25-Feb-19 17:02 36.002192 -115.287905 199 7012ft 259kts
25-Feb-19 17:03 35.943525 -115.334420 222 7724ft 247kts
25-Feb-19 17:04 35.895675 -115.398109 237 9004ft 256kts
25-Feb-19 17:05 35.886013 -115.487249 272 10922ft 269kts
25-Feb-19 17:06 35.891491 -115.581466 267 11002ft 295kts
25-Feb-19 17:07 35.892253 -115.689476 271 11890ft 324kts
25-Feb-19 17:08 35.893318 -115.805659 270 14004ft 347kts
25-Feb-19 17:09 35.895109 -115.927604 270 16488ft 364kts
25-Feb-19 17:10 35.947570 -116.033087 316 18619ft 388kts
25-Feb-19 17:11 36.027496 -116.122955 314 19047ft 394kts
25-Feb-19 17:12 36.108094 -116.215715 314 21657ft 402kts
25-Feb-19 17:13 36.190936 -116.311573 313 24388ft 412kts
25-Feb-19 17:14 36.275935 -116.410249 313 26842ft 423kts
25-Feb-19 17:15 36.362510 -116.511081 312 28920ft 431kts
25-Feb-19 17:16 36.449151 -116.612289 312 31181ft 423kts
25-Feb-19 17:17 36.533974 -116.711688 312 33235ft 415kts
25-Feb-19 17:18 36.628304 -116.795694 322 34015ft 422kts
25-Feb-19 17:19 36.729262 -116.873384 323 34014ft 430kts
25-Feb-19 17:20 36.832024 -116.951822 323 34009ft 434kts
25-Feb-19 17:21 36.935005 -117.030572 322 34006ft 433kts
25-Feb-19 17:22 37.036757 -117.108621 322 33983ft 426kts
25-Feb-19 17:23 37.137513 -117.186157 322 33976ft 422kts
25-Feb-19 17:24 37.236976 -117.262942 322 33974ft 418kts
25-Feb-19 17:25 37.322508 -117.354178 295 33976ft 397kts
25-Feb-19 17:26 37.371746 -117.478449 293 33976ft 399kts
25-Feb-19 17:27 37.423496 -117.602890 294 33966ft 403kts
25-Feb-19 17:28 37.476410 -117.728055 294 33966ft 405kts
25-Feb-19 17:29 37.529401 -117.853429 293 33963ft 406kts
25-Feb-19 17:30 37.582438 -117.979325 293 33961ft 406kts
25-Feb-19 17:31 37.635279 -118.105236 293 33935ft 406kts
25-Feb-19 17:32 37.687966 -118.231279 293 33927ft 406kts
25-Feb-19 17:33 37.740465 -118.357373 293 33927ft 406kts
25-Feb-19 17:34 37.792886 -118.483776 293 33956ft 405kts
25-Feb-19 17:35 37.845012 -118.609986 293 33956ft 405kts
25-Feb-19 17:36 37.896947 -118.736235 292 33956ft 404kts
25-Feb-19 17:37 37.948734 -118.862627 292 33956ft 403kts
25-Feb-19 17:38 38.000156 -118.988638 292 33952ft 402kts
25-Feb-19 17:39 38.050440 -119.112285 291 33927ft 388kts
25-Feb-19 17:40 38.100690 -119.236514 291 31821ft 399kts
25-Feb-19 17:41 38.151651 -119.362852 291 29867ft 400kts
25-Feb-19 17:42 38.202336 -119.489091 291 27751ft 403kts
25-Feb-19 17:43 38.253332 -119.616665 291 25762ft 412kts
25-Feb-19 17:44 38.302784 -119.750620 285 23789ft 420kts
25-Feb-19 17:45 38.335856 -119.893174 282 21659ft 397kts
25-Feb-19 17:46 38.365738 -120.024275 281 19855ft 382kts
25-Feb-19 17:47 38.394996 -120.153982 281 18055ft 379kts
25-Feb-19 17:48 38.426320 -120.282349 291 16256ft 384kts
25-Feb-19 17:49 38.489016 -120.394831 302 14465ft 392kts
25-Feb-19 17:50 38.556043 -120.499461 303 14005ft 373kts
25-Feb-19 17:51 38.620491 -120.602981 297 13977ft 351kts
25-Feb-19 17:52 38.665904 -120.696138 293 12296ft 278kts
25-Feb-19 17:53 38.703588 -120.776340 292 10585ft 254kts
25-Feb-19 17:54 38.740539 -120.856421 292 8886ft 270kts
25-Feb-19 17:55 38.777570 -120.938768 292 7190ft 260kts
25-Feb-19 17:56 38.809528 -121.018840 279 5482ft 240kts
25-Feb-19 17:57 38.823792 -121.099285 275 4069ft 217kts
25-Feb-19 17:58 38.836181 -121.169239 275 3944ft 206kts
25-Feb-19 17:59 38.848858 -121.242799 275 3074ft 209kts
25-Feb-19 18:00 38.860537 -121.314865 267 2995ft 201kts
25-Feb-19 18:01 38.855715 -121.382453 217 2259ft 182kts
25-Feb-19 18:02 38.810469 -121.402297 180 1761ft 188kts
25-Feb-19 18:03 38.763098 -121.400813 178 1646ft 131kts
25-Feb-19 18:04 38.728069 -121.400788 178 1096ft 132kts
25-Feb-19 18:05 38.691292 -121.400833 176 295ft 133kts
25-Feb-19 18:06 38.669613 -121.399860 126 78ft 10kts
25-Feb-19 18:07 38.669103 -121.398490 95 78ft 9kts
25-Feb-19 18:08 38.669446 -121.394013 182 78ft 0kts

Navigation Log

Ident Type
Flight plan parsing failed, navigation log unavailable